Lumby, Canada
Current Conditions -  °F | °C
As of 10:00 AM on Thursday 23 Oct 2014 (Local Time) from CYLW Reporting Station
Broken Clouds Broken Clouds  
Wind Chill: 50°   Ceiling: 14000
Heat Index: 50°   Visibility: 9mi
Dew Point: 45°   Wind: 3mph
Humidity: 82%   Direction: 340°NNW
Pressure: 29.7"   Gusts: NA
Location:  50.25°N, 118.97°W
Report Text: CYLW 231700Z AUTO 34003KT 290V020 9SM SCT090 BKN140 10/07 A2970 RMK SLP063
Loading
Personal Weather Stations






























Interactive Weather Map
Tropical Storm Tracking
New forecast layout! Learn more

10-Day Weather Forecast

Advertisements
Track Severe Weather on mobile